Flight Track Log - Related Links

Times and Time Zones

All times are in EDT time to prevent confusion due to time zone crossing. See the JZA8474 flight status page for this flight to view local times or setup timezone preferences in your user account.

Time Position Orientation Groundspeed Altitude Reporting Facility
EDT Latitude Longitude Course Direction KTS MPH feet Rate Location/Type
Sat 03:12:40 PM 50.5667 -115.5000 58° Northeast 270 311 21,000  Level Edmonton Center
Sat 03:13:40 PM 50.6000 -115.4000 62° Northeast 270 311 21,000 -300 Level Edmonton Center
Sat 03:14:40 PM 50.6500 -115.3333 40° Northeast 260 299 20,400 -900 Descending Edmonton Center
Sat 03:15:40 PM 50.7000 -115.2500 47° Northeast 280 322 19,200 -1,350 Descending Edmonton Center
Sat 03:16:40 PM 50.7667 -115.1167 52° Northeast 300 345 17,700 -1,500 Descending Edmonton Center
Sat 03:17:40 PM 50.8167 -115.0333 46° Northeast 310 357 16,200 -1,500 Descending Edmonton Center
Sat 03:18:00 PM 50.8738 -114.8488 58° Northeast  Level FlightAware Approximate
Sat 03:18:40 PM 50.8500 -114.9000 68° East 300 345 14,700  Level Edmonton Center
Sat 03:19:40 PM 50.8833 -114.7667 68° East 280 322 13,900 -1,100 Descending Edmonton Center
Sat 03:20:40 PM 50.9167 -114.6667 62° Northeast 280 322 12,500 -1,450 Descending Edmonton Center
Sat 03:21:40 PM 50.9333 -114.5500 77° East 280 322 11,000 -1,450 Descending Edmonton Center
Sat 03:22:40 PM 51.0167 -114.5333 North 260 299 9,600 -1,500 Descending Edmonton Center
Sat 03:23:40 PM 51.0833 -114.5000 17° North 240 276 8,000 -800 Descending Edmonton Center
Sat 03:24:40 PM 51.1333 -114.4833 12° North 210 242 8,000  Level Edmonton Center
Sat 03:25:40 PM 51.1833 -114.4667 12° North 200 230 8,000  Level Edmonton Center
Sat 03:26:40 PM 51.2167 -114.4167 43° Northeast 190 219 8,000 -100 Level Edmonton Center
Sat 03:27:40 PM 51.2000 -114.3333 108° East 200 230 7,800 -500 Descending Edmonton Center
Sat 03:28:40 PM 51.1667 -114.2667 129° Southeast 180 207 7,000 -1,000 Descending Edmonton Center
Sat 03:29:40 PM 51.1333 -114.2000 129° Southeast 150 173 5,800 -1,000 Descending Edmonton Center
Sat 03:30:40 PM 51.1333 -114.1500 90° East 130 150 5,000 -800 Descending Edmonton Center
Sat 03:31:40 PM 51.1167 -114.1000 118° Southeast 130 150 4,200 -750 Descending Edmonton Center
Sat 03:32:40 PM 51.0833 -114.0333 129° Southeast 120 138 3,500 -700 Descending Edmonton Center

Login

Don't have an account? Register now (free) for customized features, flight alerts, and more!